createdAt,value
2023-01-31T08:14:08.739Z,99534.00
2023-01-31T08:16:36.922Z,99530.00
2023-01-31T08:19:04.582Z,99536.00
2023-01-31T08:21:32.169Z,99534.00
2023-01-31T08:23:59.590Z,99541.00
2023-01-31T08:26:26.966Z,99535.00
2023-01-31T08:28:54.453Z,99536.00
2023-01-31T08:31:26.319Z,99524.00
2023-01-31T08:33:55.837Z,99539.00
2023-01-31T08:36:29.741Z,99535.00
2023-01-31T08:38:57.712Z,99532.00
2023-01-31T08:41:28.194Z,99521.00
2023-01-31T08:43:58.995Z,99537.00
2023-01-31T08:46:31.544Z,99493.00
2023-01-31T08:49:02.279Z,99537.00
2023-01-31T08:51:30.226Z,99536.00
2023-01-31T08:53:58.184Z,99536.00
2023-01-31T08:56:26.331Z,99539.00
2023-01-31T08:58:55.014Z,99536.00
2023-01-31T09:01:23.271Z,99540.00
2023-01-31T09:03:56.294Z,99541.00
2023-01-31T09:06:27.244Z,99550.00
2023-01-31T09:08:58.222Z,99531.00
2023-01-31T09:11:30.363Z,99552.00
2023-01-31T09:13:58.359Z,99553.00
2023-01-31T09:16:25.699Z,99544.00
2023-01-31T09:18:54.055Z,99563.00
2023-01-31T09:21:24.341Z,99572.00
2023-01-31T09:24:00.185Z,99555.00
2023-01-31T09:26:27.573Z,99568.00
2023-01-31T09:28:56.146Z,99576.00
2023-01-31T09:31:23.590Z,99577.00
2023-01-31T09:33:51.071Z,99550.00
2023-01-31T09:36:23.967Z,99553.00
2023-01-31T09:38:58.173Z,99555.00
2023-01-31T09:42:00.986Z,99540.00
2023-01-31T09:44:44.198Z,99550.00
2023-01-31T09:47:41.101Z,99560.00
2023-01-31T09:50:43.451Z,99560.00
2023-01-31T09:53:21.852Z,99554.00
2023-01-31T09:56:39.871Z,99548.00
2023-01-31T10:00:12.793Z,99575.00
2023-01-31T10:03:21.488Z,99569.00
2023-01-31T10:06:36.309Z,99541.00
2023-01-31T10:09:38.297Z,99536.00
2023-01-31T10:12:33.594Z,99530.00
2023-01-31T10:15:32.958Z,99531.00
2023-01-31T10:18:18.440Z,99520.00
2023-01-31T10:21:57.586Z,99524.00
2023-01-31T10:24:48.117Z,99517.00
2023-01-31T10:27:53.074Z,99520.00
2023-01-31T10:30:33.769Z,99529.00
2023-01-31T10:33:15.147Z,99513.00
2023-01-31T10:35:44.069Z,99531.00
2023-01-31T10:38:39.550Z,99526.00
2023-01-31T10:41:22.882Z,99521.00
2023-01-31T10:44:03.537Z,99516.00
2023-01-31T10:46:30.846Z,99518.00
2023-01-31T10:48:58.570Z,99528.00
2023-01-31T10:51:52.387Z,99539.00
2023-01-31T10:55:26.739Z,99534.00
2023-01-31T10:57:54.775Z,99536.00
2023-01-31T11:00:32.993Z,99523.00
2023-01-31T11:03:00.444Z,99531.00
2023-01-31T11:05:30.493Z,99535.00
2023-01-31T11:08:17.634Z,99518.00
2023-01-31T11:10:57.136Z,99503.00
2023-01-31T11:13:25.003Z,99508.00
2023-01-31T11:15:55.550Z,99501.00
2023-01-31T11:18:36.784Z,99499.00
2023-01-31T11:21:05.619Z,99499.00
2023-01-31T11:23:36.037Z,99494.00
2023-01-31T11:26:04.191Z,99485.00
2023-01-31T11:28:41.272Z,99484.00
2023-01-31T11:31:29.230Z,99492.00
2023-01-31T11:34:04.967Z,99506.00
2023-01-31T11:36:45.787Z,99505.00
2023-01-31T11:39:37.975Z,99507.00
2023-01-31T11:42:16.244Z,99529.00
2023-01-31T11:45:16.210Z,99531.00
2023-01-31T11:48:05.363Z,99525.00
2023-01-31T11:51:01.194Z,99528.00
2023-01-31T11:53:43.558Z,99521.00
2023-01-31T11:56:22.972Z,99525.00
2023-01-31T11:58:58.201Z,99515.00
2023-01-31T12:01:26.623Z,99512.00
2023-01-31T12:04:04.626Z,99514.00
2023-01-31T12:06:34.346Z,99516.00
2023-01-31T12:09:22.717Z,99516.00
2023-01-31T12:12:00.660Z,99507.00
2023-01-31T12:14:42.410Z,99503.00
2023-01-31T12:17:16.807Z,99488.00
2023-01-31T12:20:27.018Z,99483.00
2023-01-31T12:23:46.421Z,99496.00
2023-01-31T12:26:47.147Z,99477.00
2023-01-31T12:29:58.846Z,99475.00
2023-01-31T12:33:24.500Z,99472.00
2023-01-31T12:36:22.298Z,99472.00
2023-01-31T12:39:28.658Z,99483.00
2023-01-31T12:42:34.643Z,99473.00
2023-01-31T12:46:17.795Z,99462.00
2023-01-31T12:49:40.765Z,99462.00
2023-01-31T12:52:52.250Z,99449.00
2023-01-31T12:56:24.720Z,99455.00
2023-01-31T12:59:26.423Z,99445.00
2023-01-31T13:03:03.851Z,99441.00
2023-01-31T13:06:19.439Z,99449.00
2023-01-31T13:09:10.940Z,99454.00
2023-01-31T13:11:49.010Z,99451.00
2023-01-31T13:14:23.092Z,99434.00
2023-01-31T13:17:00.070Z,99427.00
2023-01-31T13:19:54.788Z,99421.00
2023-01-31T13:22:41.736Z,99425.00
2023-01-31T13:25:46.857Z,99418.00
2023-01-31T13:28:29.695Z,99409.00
2023-01-31T13:31:08.477Z,99406.00
2023-01-31T13:34:34.720Z,99421.00
2023-01-31T13:37:21.016Z,99414.00
2023-01-31T13:40:32.980Z,99413.00
2023-01-31T13:43:13.876Z,99410.00
2023-01-31T13:46:10.064Z,99406.00
2023-01-31T13:48:55.518Z,99407.00
2023-01-31T13:51:43.653Z,99410.00
2023-01-31T13:54:39.126Z,99397.00
2023-01-31T13:57:07.386Z,99394.00
2023-01-31T13:59:40.540Z,99398.00
2023-01-31T14:02:20.029Z,99399.00
2023-01-31T14:04:48.014Z,99402.00
2023-01-31T14:07:22.614Z,99399.00
2023-01-31T14:09:49.733Z,99401.00
2023-01-31T14:12:17.148Z,99392.00
2023-01-31T14:14:57.185Z,99401.00
2023-01-31T14:17:27.233Z,99403.00
2023-01-31T14:19:56.976Z,99401.00
2023-01-31T14:22:39.987Z,99398.00
2023-01-31T14:25:10.095Z,99395.00
2023-01-31T14:27:38.104Z,99393.00
2023-01-31T14:30:08.518Z,99401.00
2023-01-31T14:33:13.186Z,99391.00
2023-01-31T14:37:09.634Z,99389.00
2023-01-31T14:40:30.349Z,99380.00
2023-01-31T14:43:41.288Z,99388.00
2023-01-31T14:46:54.990Z,99387.00
2023-01-31T14:50:05.655Z,99385.00
2023-01-31T14:53:20.632Z,99375.00
2023-01-31T14:56:25.991Z,99384.00
2023-01-31T14:58:54.567Z,99386.00
2023-01-31T15:01:31.242Z,99375.00
2023-01-31T15:03:59.155Z,99386.00
2023-01-31T15:06:40.458Z,99382.00
2023-01-31T15:09:28.000Z,99378.00
2023-01-31T15:11:58.839Z,99370.00
2023-01-31T15:14:49.106Z,99389.00
2023-01-31T15:17:38.420Z,99389.00
2023-01-31T15:20:33.315Z,99382.00
2023-01-31T15:23:09.085Z,99383.00
2023-01-31T15:25:46.556Z,99377.00
2023-01-31T15:28:26.347Z,99367.00
2023-01-31T15:30:59.974Z,99392.00
2023-01-31T15:33:37.925Z,99375.00
2023-01-31T15:36:38.859Z,99381.00
2023-01-31T15:39:46.499Z,99397.00
2023-01-31T15:42:32.623Z,99388.00
2023-01-31T15:45:26.451Z,99395.00
2023-01-31T15:48:15.660Z,99398.00
2023-01-31T15:50:58.404Z,99386.00
2023-01-31T15:53:32.956Z,99390.00
2023-01-31T15:56:03.420Z,99394.00
2023-01-31T15:58:32.745Z,99396.00
2023-01-31T16:01:02.676Z,99391.00
2023-01-31T16:03:41.979Z,99377.00
2023-01-31T16:06:37.832Z,99384.00
2023-01-31T16:09:30.713Z,99381.00
2023-01-31T16:12:02.637Z,99383.00
2023-01-31T16:14:30.467Z,99375.00
2023-01-31T16:16:59.250Z,99378.00
2023-01-31T16:19:35.908Z,99375.00
2023-01-31T16:22:03.948Z,99378.00
2023-01-31T16:24:32.134Z,99373.00
2023-01-31T16:27:14.979Z,99370.00
2023-01-31T16:29:52.854Z,99375.00
2023-01-31T16:32:31.021Z,99364.00
2023-01-31T16:35:06.547Z,99366.00
2023-01-31T16:37:43.568Z,99369.00
2023-01-31T16:40:29.525Z,99350.00
2023-01-31T16:43:31.327Z,99362.00
2023-01-31T16:46:12.174Z,99347.00
2023-01-31T16:48:41.974Z,99347.00
2023-01-31T16:51:30.145Z,99347.00
2023-01-31T16:54:33.043Z,99361.00
2023-01-31T16:57:03.176Z,99365.00
2023-01-31T16:59:39.109Z,99374.00
2023-01-31T17:02:30.291Z,99389.00
2023-01-31T17:05:30.395Z,99389.00
2023-01-31T17:07:58.532Z,99389.00
2023-01-31T17:10:34.943Z,99385.00
2023-01-31T17:13:23.450Z,99376.00
2023-01-31T17:15:51.399Z,99385.00
2023-01-31T17:18:19.024Z,99395.00
2023-01-31T17:20:49.188Z,99400.00
2023-01-31T17:23:17.277Z,99405.00
2023-01-31T17:25:45.493Z,99427.00
2023-01-31T17:28:12.778Z,99435.00
2023-01-31T17:30:44.795Z,99448.00
2023-01-31T17:33:15.967Z,99436.00
2023-01-31T17:35:49.825Z,99436.00
2023-01-31T17:38:17.259Z,99452.00
2023-01-31T17:40:45.995Z,99456.00
2023-01-31T17:43:22.462Z,99463.00
2023-01-31T17:45:49.787Z,99460.00
2023-01-31T17:48:26.406Z,99456.00
2023-01-31T17:50:54.634Z,99462.00
2023-01-31T17:53:21.992Z,99460.00
2023-01-31T17:55:49.410Z,99453.00
2023-01-31T17:58:20.466Z,99455.00
2023-01-31T18:00:47.810Z,99457.00
2023-01-31T18:03:22.663Z,99454.00
2023-01-31T18:05:50.991Z,99451.00
2023-01-31T18:08:18.949Z,99465.00
2023-01-31T18:10:46.756Z,99465.00
2023-01-31T18:13:14.121Z,99448.00
2023-01-31T18:15:41.413Z,99448.00
2023-01-31T18:18:08.864Z,99446.00
2023-01-31T18:20:47.503Z,99452.00
2023-01-31T18:23:14.814Z,99449.00
2023-01-31T18:25:44.064Z,99446.00
2023-01-31T18:28:11.379Z,99456.00
2023-01-31T18:30:38.745Z,99458.00
2023-01-31T18:33:06.362Z,99450.00
2023-01-31T18:35:33.781Z,99456.00
2023-01-31T18:38:01.186Z,99460.00
2023-01-31T18:40:28.465Z,99463.00
2023-01-31T18:42:55.764Z,99469.00
2023-01-31T18:45:23.400Z,99465.00
2023-01-31T18:47:51.730Z,99458.00
2023-01-31T18:50:19.097Z,99459.00
2023-01-31T18:52:47.383Z,99443.00
2023-01-31T18:55:14.739Z,99452.00
2023-01-31T18:57:42.063Z,99465.00
2023-01-31T19:00:10.936Z,99453.00
2023-01-31T19:02:38.287Z,99450.00
2023-01-31T19:05:06.353Z,99449.00
